sensor_id;sensor_type;location;lat;lon;timestamp;P1;durP1;ratioP1;P2;durP2;ratioP2
7340;SDS011;6870;50.944;6.932;2023-02-28T00:01:42;2.70;;;1.33;;
7340;SDS011;6870;50.944;6.932;2023-02-28T00:04:10;4.90;;;1.33;;
7340;SDS011;6870;50.944;6.932;2023-02-28T00:06:39;5.70;;;1.97;;
7340;SDS011;6870;50.944;6.932;2023-02-28T00:09:08;15.40;;;2.23;;
7340;SDS011;6870;50.944;6.932;2023-02-28T00:11:36;2.97;;;1.30;;
7340;SDS011;6870;50.944;6.932;2023-02-28T00:14:05;4.90;;;1.90;;
7340;SDS011;6870;50.944;6.932;2023-02-28T00:16:34;3.00;;;1.23;;
7340;SDS011;6870;50.944;6.932;2023-02-28T00:19:02;4.47;;;1.90;;
7340;SDS011;6870;50.944;6.932;2023-02-28T00:21:30;2.57;;;1.00;;
7340;SDS011;6870;50.944;6.932;2023-02-28T00:23:58;4.07;;;1.00;;
7340;SDS011;6870;50.944;6.932;2023-02-28T00:26:26;5.23;;;1.80;;
7340;SDS011;6870;50.944;6.932;2023-02-28T00:28:55;2.93;;;1.20;;
7340;SDS011;6870;50.944;6.932;2023-02-28T00:31:23;4.20;;;1.40;;
7340;SDS011;6870;50.944;6.932;2023-02-28T00:33:53;3.53;;;1.40;;
7340;SDS011;6870;50.944;6.932;2023-02-28T00:36:21;2.77;;;1.20;;
7340;SDS011;6870;50.944;6.932;2023-02-28T00:38:49;1.53;;;1.00;;
7340;SDS011;6870;50.944;6.932;2023-02-28T00:41:17;4.50;;;1.57;;
7340;SDS011;6870;50.944;6.932;2023-02-28T00:43:45;4.90;;;1.40;;
7340;SDS011;6870;50.944;6.932;2023-02-28T00:46:13;2.27;;;1.00;;
7340;SDS011;6870;50.944;6.932;2023-02-28T00:48:41;6.67;;;1.63;;
7340;SDS011;6870;50.944;6.932;2023-02-28T00:51:11;5.43;;;1.60;;
7340;SDS011;6870;50.944;6.932;2023-02-28T00:53:39;2.73;;;1.70;;
7340;SDS011;6870;50.944;6.932;2023-02-28T00:56:07;2.60;;;1.30;;
7340;SDS011;6870;50.944;6.932;2023-02-28T00:58:35;4.00;;;1.70;;
7340;SDS011;6870;50.944;6.932;2023-02-28T01:01:03;4.03;;;1.30;;
7340;SDS011;6870;50.944;6.932;2023-02-28T01:03:32;2.10;;;1.47;;
7340;SDS011;6870;50.944;6.932;2023-02-28T01:06:00;4.80;;;1.83;;
7340;SDS011;6870;50.944;6.932;2023-02-28T01:08:29;3.47;;;1.40;;
7340;SDS011;6870;50.944;6.932;2023-02-28T01:10:58;1.57;;;1.20;;
7340;SDS011;6870;50.944;6.932;2023-02-28T01:13:35;5.20;;;1.20;;
7340;SDS011;6870;50.944;6.932;2023-02-28T01:16:04;3.83;;;1.40;;
7340;SDS011;6870;50.944;6.932;2023-02-28T01:18:33;2.33;;;1.00;;
7340;SDS011;6870;50.944;6.932;2023-02-28T01:21:03;7.90;;;1.67;;
7340;SDS011;6870;50.944;6.932;2023-02-28T01:23:33;3.37;;;1.27;;
7340;SDS011;6870;50.944;6.932;2023-02-28T01:26:05;2.80;;;1.27;;
7340;SDS011;6870;50.944;6.932;2023-02-28T01:28:35;3.67;;;1.70;;
7340;SDS011;6870;50.944;6.932;2023-02-28T01:31:03;2.67;;;1.47;;
7340;SDS011;6870;50.944;6.932;2023-02-28T01:33:33;2.53;;;1.30;;
7340;SDS011;6870;50.944;6.932;2023-02-28T01:36:02;1.80;;;1.20;;
7340;SDS011;6870;50.944;6.932;2023-02-28T01:38:33;2.30;;;1.30;;
7340;SDS011;6870;50.944;6.932;2023-02-28T01:41:02;3.40;;;1.20;;
7340;SDS011;6870;50.944;6.932;2023-02-28T01:43:31;4.37;;;1.47;;
7340;SDS011;6870;50.944;6.932;2023-02-28T01:46:23;7.17;;;1.43;;
7340;SDS011;6870;50.944;6.932;2023-02-28T01:48:51;2.50;;;1.50;;
7340;SDS011;6870;50.944;6.932;2023-02-28T01:51:26;4.87;;;1.67;;
7340;SDS011;6870;50.944;6.932;2023-02-28T01:54:00;4.90;;;1.13;;
7340;SDS011;6870;50.944;6.932;2023-02-28T01:56:33;4.27;;;1.33;;
7340;SDS011;6870;50.944;6.932;2023-02-28T01:59:03;4.70;;;1.30;;
7340;SDS011;6870;50.944;6.932;2023-02-28T02:01:31;5.40;;;1.10;;
7340;SDS011;6870;50.944;6.932;2023-02-28T02:04:01;3.67;;;1.50;;
7340;SDS011;6870;50.944;6.932;2023-02-28T02:06:30;4.90;;;1.37;;
7340;SDS011;6870;50.944;6.932;2023-02-28T02:09:06;5.23;;;1.47;;
7340;SDS011;6870;50.944;6.932;2023-02-28T02:11:34;1.53;;;1.00;;
7340;SDS011;6870;50.944;6.932;2023-02-28T02:14:10;5.03;;;1.50;;
7340;SDS011;6870;50.944;6.932;2023-02-28T02:16:55;3.50;;;1.50;;
7340;SDS011;6870;50.944;6.932;2023-02-28T02:19:47;3.40;;;1.37;;
7340;SDS011;6870;50.944;6.932;2023-02-28T02:23:08;3.93;;;1.47;;
7340;SDS011;6870;50.944;6.932;2023-02-28T02:26:06;9.53;;;2.10;;
7340;SDS011;6870;50.944;6.932;2023-02-28T02:29:21;5.43;;;1.90;;
7340;SDS011;6870;50.944;6.932;2023-02-28T02:32:23;20.17;;;2.10;;
7340;SDS011;6870;50.944;6.932;2023-02-28T02:35:31;9.70;;;1.40;;
7340;SDS011;6870;50.944;6.932;2023-02-28T02:38:08;10.30;;;1.80;;
7340;SDS011;6870;50.944;6.932;2023-02-28T02:40:44;6.30;;;2.40;;
7340;SDS011;6870;50.944;6.932;2023-02-28T02:43:22;3.83;;;1.10;;
7340;SDS011;6870;50.944;6.932;2023-02-28T02:45:59;7.57;;;1.10;;
7340;SDS011;6870;50.944;6.932;2023-02-28T02:48:32;5.43;;;1.63;;
7340;SDS011;6870;50.944;6.932;2023-02-28T02:51:04;10.40;;;1.83;;
7340;SDS011;6870;50.944;6.932;2023-02-28T02:53:40;5.13;;;1.93;;
7340;SDS011;6870;50.944;6.932;2023-02-28T02:56:15;6.77;;;1.90;;
7340;SDS011;6870;50.944;6.932;2023-02-28T02:58:47;4.10;;;1.50;;
7340;SDS011;6870;50.944;6.932;2023-02-28T03:01:19;7.63;;;1.07;;
7340;SDS011;6870;50.944;6.932;2023-02-28T03:03:55;4.73;;;1.67;;
7340;SDS011;6870;50.944;6.932;2023-02-28T03:06:28;2.43;;;1.50;;
7340;SDS011;6870;50.944;6.932;2023-02-28T03:08:56;6.83;;;1.63;;
7340;SDS011;6870;50.944;6.932;2023-02-28T03:11:24;4.43;;;2.27;;
7340;SDS011;6870;50.944;6.932;2023-02-28T03:14:08;3.30;;;1.20;;
7340;SDS011;6870;50.944;6.932;2023-02-28T03:17:02;3.60;;;1.53;;
7340;SDS011;6870;50.944;6.932;2023-02-28T03:20:04;7.10;;;1.60;;
7340;SDS011;6870;50.944;6.932;2023-02-28T03:22:49;7.87;;;1.83;;
7340;SDS011;6870;50.944;6.932;2023-02-28T03:25:31;4.80;;;1.70;;
7340;SDS011;6870;50.944;6.932;2023-02-28T03:28:08;3.77;;;1.23;;
7340;SDS011;6870;50.944;6.932;2023-02-28T03:30:41;6.43;;;1.67;;
7340;SDS011;6870;50.944;6.932;2023-02-28T03:33:15;8.50;;;1.83;;
7340;SDS011;6870;50.944;6.932;2023-02-28T03:35:50;3.43;;;1.57;;
7340;SDS011;6870;50.944;6.932;2023-02-28T03:38:24;5.20;;;1.23;;
7340;SDS011;6870;50.944;6.932;2023-02-28T03:41:01;2.27;;;1.40;;
7340;SDS011;6870;50.944;6.932;2023-02-28T03:43:35;6.67;;;1.00;;
7340;SDS011;6870;50.944;6.932;2023-02-28T03:46:07;3.93;;;1.60;;
7340;SDS011;6870;50.944;6.932;2023-02-28T03:48:39;2.60;;;1.40;;
7340;SDS011;6870;50.944;6.932;2023-02-28T03:51:10;4.23;;;1.63;;
7340;SDS011;6870;50.944;6.932;2023-02-28T03:53:45;3.93;;;1.23;;
7340;SDS011;6870;50.944;6.932;2023-02-28T03:56:20;5.07;;;1.80;;
7340;SDS011;6870;50.944;6.932;2023-02-28T03:58:53;2.13;;;0.90;;
7340;SDS011;6870;50.944;6.932;2023-02-28T04:01:30;4.43;;;1.37;;
7340;SDS011;6870;50.944;6.932;2023-02-28T04:04:03;5.63;;;1.80;;
7340;SDS011;6870;50.944;6.932;2023-02-28T04:06:32;5.37;;;1.30;;
7340;SDS011;6870;50.944;6.932;2023-02-28T04:09:04;4.90;;;1.33;;
7340;SDS011;6870;50.944;6.932;2023-02-28T04:11:35;1.53;;;1.23;;
7340;SDS011;6870;50.944;6.932;2023-02-28T04:14:05;2.10;;;1.17;;
7340;SDS011;6870;50.944;6.932;2023-02-28T04:16:35;6.40;;;1.20;;
7340;SDS011;6870;50.944;6.932;2023-02-28T04:19:06;2.83;;;1.40;;
7340;SDS011;6870;50.944;6.932;2023-02-28T04:21:37;4.20;;;1.17;;
7340;SDS011;6870;50.944;6.932;2023-02-28T04:24:10;4.80;;;1.10;;
7340;SDS011;6870;50.944;6.932;2023-02-28T04:26:41;8.20;;;1.50;;
7340;SDS011;6870;50.944;6.932;2023-02-28T04:29:11;2.10;;;1.10;;
7340;SDS011;6870;50.944;6.932;2023-02-28T04:31:45;3.33;;;1.13;;
7340;SDS011;6870;50.944;6.932;2023-02-28T04:34:13;5.27;;;1.57;;
7340;SDS011;6870;50.944;6.932;2023-02-28T04:36:41;4.93;;;1.53;;
7340;SDS011;6870;50.944;6.932;2023-02-28T04:39:11;5.77;;;1.73;;
7340;SDS011;6870;50.944;6.932;2023-02-28T04:41:39;3.93;;;1.27;;
7340;SDS011;6870;50.944;6.932;2023-02-28T04:44:07;1.23;;;1.00;;
7340;SDS011;6870;50.944;6.932;2023-02-28T04:46:35;3.20;;;1.47;;
7340;SDS011;6870;50.944;6.932;2023-02-28T04:49:04;15.10;;;2.03;;
7340;SDS011;6870;50.944;6.932;2023-02-28T04:51:32;4.10;;;1.20;;
7340;SDS011;6870;50.944;6.932;2023-02-28T04:54:00;1.60;;;0.90;;
7340;SDS011;6870;50.944;6.932;2023-02-28T04:56:29;2.23;;;0.83;;
7340;SDS011;6870;50.944;6.932;2023-02-28T04:58:57;2.93;;;1.17;;
7340;SDS011;6870;50.944;6.932;2023-02-28T05:01:26;5.40;;;1.13;;
7340;SDS011;6870;50.944;6.932;2023-02-28T05:03:57;2.73;;;1.07;;
7340;SDS011;6870;50.944;6.932;2023-02-28T05:06:26;5.60;;;1.27;;
7340;SDS011;6870;50.944;6.932;2023-02-28T05:08:56;3.03;;;1.10;;
7340;SDS011;6870;50.944;6.932;2023-02-28T05:11:25;4.60;;;1.60;;
7340;SDS011;6870;50.944;6.932;2023-02-28T05:14:01;4.40;;;1.20;;
7340;SDS011;6870;50.944;6.932;2023-02-28T05:16:30;4.77;;;2.00;;
7340;SDS011;6870;50.944;6.932;2023-02-28T05:18:59;4.43;;;1.47;;
7340;SDS011;6870;50.944;6.932;2023-02-28T05:21:28;5.93;;;1.57;;
7340;SDS011;6870;50.944;6.932;2023-02-28T05:23:58;8.50;;;1.80;;
7340;SDS011;6870;50.944;6.932;2023-02-28T05:26:28;4.50;;;1.40;;
7340;SDS011;6870;50.944;6.932;2023-02-28T05:28:57;9.67;;;2.50;;
7340;SDS011;6870;50.944;6.932;2023-02-28T05:31:26;24.60;;;6.67;;
7340;SDS011;6870;50.944;6.932;2023-02-28T05:33:55;24.07;;;4.53;;
7340;SDS011;6870;50.944;6.932;2023-02-28T05:36:23;16.70;;;4.40;;
7340;SDS011;6870;50.944;6.932;2023-02-28T05:38:51;23.37;;;5.70;;
7340;SDS011;6870;50.944;6.932;2023-02-28T05:41:20;14.07;;;4.30;;
7340;SDS011;6870;50.944;6.932;2023-02-28T05:43:48;19.87;;;5.50;;
7340;SDS011;6870;50.944;6.932;2023-02-28T05:46:16;17.90;;;3.87;;
7340;SDS011;6870;50.944;6.932;2023-02-28T05:48:47;12.93;;;4.13;;
7340;SDS011;6870;50.944;6.932;2023-02-28T05:51:15;13.20;;;4.13;;
7340;SDS011;6870;50.944;6.932;2023-02-28T05:53:44;7.30;;;2.90;;
7340;SDS011;6870;50.944;6.932;2023-02-28T05:56:14;9.37;;;4.07;;
7340;SDS011;6870;50.944;6.932;2023-02-28T05:58:42;19.73;;;3.60;;
7340;SDS011;6870;50.944;6.932;2023-02-28T06:01:20;9.13;;;2.97;;
7340;SDS011;6870;50.944;6.932;2023-02-28T06:03:52;11.47;;;3.20;;
7340;SDS011;6870;50.944;6.932;2023-02-28T06:06:20;11.70;;;3.33;;
7340;SDS011;6870;50.944;6.932;2023-02-28T06:08:48;8.53;;;2.80;;
7340;SDS011;6870;50.944;6.932;2023-02-28T06:11:16;9.63;;;2.90;;
7340;SDS011;6870;50.944;6.932;2023-02-28T06:13:46;14.90;;;2.80;;
7340;SDS011;6870;50.944;6.932;2023-02-28T06:16:14;10.43;;;3.00;;
7340;SDS011;6870;50.944;6.932;2023-02-28T06:18:42;6.57;;;1.83;;
7340;SDS011;6870;50.944;6.932;2023-02-28T06:21:12;7.80;;;2.70;;
7340;SDS011;6870;50.944;6.932;2023-02-28T06:23:40;11.00;;;3.30;;
7340;SDS011;6870;50.944;6.932;2023-02-28T06:26:08;6.33;;;2.23;;
7340;SDS011;6870;50.944;6.932;2023-02-28T06:28:36;8.17;;;1.67;;
7340;SDS011;6870;50.944;6.932;2023-02-28T06:31:07;5.23;;;1.80;;
7340;SDS011;6870;50.944;6.932;2023-02-28T06:33:37;5.17;;;2.80;;
7340;SDS011;6870;50.944;6.932;2023-02-28T06:36:06;9.90;;;2.53;;
7340;SDS011;6870;50.944;6.932;2023-02-28T06:38:37;6.10;;;1.80;;
7340;SDS011;6870;50.944;6.932;2023-02-28T06:41:07;6.20;;;1.97;;
7340;SDS011;6870;50.944;6.932;2023-02-28T06:43:36;8.07;;;1.83;;
7340;SDS011;6870;50.944;6.932;2023-02-28T06:46:07;1.60;;;1.23;;
7340;SDS011;6870;50.944;6.932;2023-02-28T06:48:39;4.60;;;1.33;;
7340;SDS011;6870;50.944;6.932;2023-02-28T06:51:09;7.63;;;2.03;;
7340;SDS011;6870;50.944;6.932;2023-02-28T06:53:40;3.63;;;1.40;;
7340;SDS011;6870;50.944;6.932;2023-02-28T06:56:09;7.73;;;2.23;;
7340;SDS011;6870;50.944;6.932;2023-02-28T06:58:45;5.20;;;1.63;;
7340;SDS011;6870;50.944;6.932;2023-02-28T07:01:14;3.50;;;1.13;;
7340;SDS011;6870;50.944;6.932;2023-02-28T07:03:42;5.07;;;1.20;;
7340;SDS011;6870;50.944;6.932;2023-02-28T07:06:10;4.93;;;1.13;;
7340;SDS011;6870;50.944;6.932;2023-02-28T07:08:40;7.20;;;1.10;;
7340;SDS011;6870;50.944;6.932;2023-02-28T07:11:08;5.70;;;1.30;;
7340;SDS011;6870;50.944;6.932;2023-02-28T07:13:37;3.17;;;1.23;;
7340;SDS011;6870;50.944;6.932;2023-02-28T07:16:05;2.33;;;0.87;;
7340;SDS011;6870;50.944;6.932;2023-02-28T07:18:36;1.97;;;0.93;;
7340;SDS011;6870;50.944;6.932;2023-02-28T07:21:06;1.77;;;1.13;;
7340;SDS011;6870;50.944;6.932;2023-02-28T07:23:36;4.43;;;1.63;;
7340;SDS011;6870;50.944;6.932;2023-02-28T07:26:07;4.00;;;1.87;;
7340;SDS011;6870;50.944;6.932;2023-02-28T07:28:41;4.20;;;1.00;;
7340;SDS011;6870;50.944;6.932;2023-02-28T07:31:10;1.87;;;0.70;;
7340;SDS011;6870;50.944;6.932;2023-02-28T07:33:40;5.70;;;1.23;;
7340;SDS011;6870;50.944;6.932;2023-02-28T07:36:09;3.37;;;0.80;;
7340;SDS011;6870;50.944;6.932;2023-02-28T07:38:41;4.13;;;1.03;;
7340;SDS011;6870;50.944;6.932;2023-02-28T07:41:14;2.70;;;1.00;;
7340;SDS011;6870;50.944;6.932;2023-02-28T07:43:43;4.57;;;1.33;;
7340;SDS011;6870;50.944;6.932;2023-02-28T07:46:12;1.67;;;1.37;;
7340;SDS011;6870;50.944;6.932;2023-02-28T07:48:42;3.90;;;1.30;;
7340;SDS011;6870;50.944;6.932;2023-02-28T07:51:11;2.47;;;0.87;;
7340;SDS011;6870;50.944;6.932;2023-02-28T07:53:39;3.20;;;1.30;;
7340;SDS011;6870;50.944;6.932;2023-02-28T07:56:08;3.90;;;1.00;;
7340;SDS011;6870;50.944;6.932;2023-02-28T07:58:38;1.57;;;0.87;;
7340;SDS011;6870;50.944;6.932;2023-02-28T08:01:06;3.80;;;1.10;;
7340;SDS011;6870;50.944;6.932;2023-02-28T08:03:36;6.80;;;1.50;;
7340;SDS011;6870;50.944;6.932;2023-02-28T08:06:06;4.30;;;1.57;;
7340;SDS011;6870;50.944;6.932;2023-02-28T08:08:37;2.23;;;0.93;;
7340;SDS011;6870;50.944;6.932;2023-02-28T08:11:05;7.50;;;1.40;;
7340;SDS011;6870;50.944;6.932;2023-02-28T08:13:33;2.10;;;1.43;;
7340;SDS011;6870;50.944;6.932;2023-02-28T08:16:02;3.80;;;1.20;;
7340;SDS011;6870;50.944;6.932;2023-02-28T08:18:32;3.53;;;1.17;;
7340;SDS011;6870;50.944;6.932;2023-02-28T08:21:05;4.97;;;1.10;;
7340;SDS011;6870;50.944;6.932;2023-02-28T08:23:34;2.33;;;1.03;;
7340;SDS011;6870;50.944;6.932;2023-02-28T08:26:02;2.43;;;1.33;;
7340;SDS011;6870;50.944;6.932;2023-02-28T08:28:31;6.83;;;1.43;;
7340;SDS011;6870;50.944;6.932;2023-02-28T08:30:59;6.17;;;1.17;;
7340;SDS011;6870;50.944;6.932;2023-02-28T08:33:29;4.17;;;1.27;;
7340;SDS011;6870;50.944;6.932;2023-02-28T08:35:57;2.67;;;1.30;;
7340;SDS011;6870;50.944;6.932;2023-02-28T08:38:25;3.83;;;1.30;;
7340;SDS011;6870;50.944;6.932;2023-02-28T08:40:56;2.53;;;0.87;;
7340;SDS011;6870;50.944;6.932;2023-02-28T08:43:25;2.60;;;1.03;;
7340;SDS011;6870;50.944;6.932;2023-02-28T08:45:53;2.50;;;1.00;;
7340;SDS011;6870;50.944;6.932;2023-02-28T08:48:23;2.13;;;0.90;;
7340;SDS011;6870;50.944;6.932;2023-02-28T08:50:57;1.63;;;1.07;;
7340;SDS011;6870;50.944;6.932;2023-02-28T08:53:33;1.40;;;0.90;;
7340;SDS011;6870;50.944;6.932;2023-02-28T08:56:02;2.67;;;1.20;;
7340;SDS011;6870;50.944;6.932;2023-02-28T08:58:32;1.83;;;1.00;;
7340;SDS011;6870;50.944;6.932;2023-02-28T09:01:07;2.70;;;1.33;;
7340;SDS011;6870;50.944;6.932;2023-02-28T09:03:36;2.47;;;0.90;;
7340;SDS011;6870;50.944;6.932;2023-02-28T09:06:06;1.80;;;1.00;;
7340;SDS011;6870;50.944;6.932;2023-02-28T09:08:35;3.93;;;2.03;;
7340;SDS011;6870;50.944;6.932;2023-02-28T09:11:03;2.60;;;1.00;;
7340;SDS011;6870;50.944;6.932;2023-02-28T09:13:32;2.20;;;0.70;;
7340;SDS011;6870;50.944;6.932;2023-02-28T09:16:01;2.80;;;1.67;;
7340;SDS011;6870;50.944;6.932;2023-02-28T09:18:33;1.20;;;0.67;;
7340;SDS011;6870;50.944;6.932;2023-02-28T09:21:02;2.30;;;0.90;;
7340;SDS011;6870;50.944;6.932;2023-02-28T09:23:32;2.23;;;0.70;;
7340;SDS011;6870;50.944;6.932;2023-02-28T09:26:00;2.60;;;1.10;;
7340;SDS011;6870;50.944;6.932;2023-02-28T09:28:28;2.47;;;1.27;;
7340;SDS011;6870;50.944;6.932;2023-02-28T09:30:56;2.10;;;0.93;;
7340;SDS011;6870;50.944;6.932;2023-02-28T09:33:25;1.67;;;1.07;;
7340;SDS011;6870;50.944;6.932;2023-02-28T09:35:57;3.73;;;1.30;;
7340;SDS011;6870;50.944;6.932;2023-02-28T09:38:28;1.40;;;0.80;;
7340;SDS011;6870;50.944;6.932;2023-02-28T09:40:58;2.80;;;1.50;;
7340;SDS011;6870;50.944;6.932;2023-02-28T09:43:29;3.20;;;1.20;;
7340;SDS011;6870;50.944;6.932;2023-02-28T09:46:05;2.60;;;1.10;;
7340;SDS011;6870;50.944;6.932;2023-02-28T09:48:43;2.07;;;1.23;;
7340;SDS011;6870;50.944;6.932;2023-02-28T09:51:16;1.83;;;1.10;;
7340;SDS011;6870;50.944;6.932;2023-02-28T09:53:56;1.27;;;0.70;;
7340;SDS011;6870;50.944;6.932;2023-02-28T09:56:30;1.33;;;1.00;;
7340;SDS011;6870;50.944;6.932;2023-02-28T09:59:05;2.20;;;0.80;;
7340;SDS011;6870;50.944;6.932;2023-02-28T10:01:43;1.30;;;1.00;;
7340;SDS011;6870;50.944;6.932;2023-02-28T10:04:28;1.33;;;0.97;;
7340;SDS011;6870;50.944;6.932;2023-02-28T10:07:12;1.53;;;0.90;;
7340;SDS011;6870;50.944;6.932;2023-02-28T10:10:15;1.70;;;1.10;;
7340;SDS011;6870;50.944;6.932;2023-02-28T10:12:50;1.97;;;1.20;;
7340;SDS011;6870;50.944;6.932;2023-02-28T10:15:22;1.90;;;1.10;;
7340;SDS011;6870;50.944;6.932;2023-02-28T10:17:53;2.20;;;0.90;;
7340;SDS011;6870;50.944;6.932;2023-02-28T10:20:35;6.00;;;1.07;;
7340;SDS011;6870;50.944;6.932;2023-02-28T10:23:09;4.87;;;0.93;;
7340;SDS011;6870;50.944;6.932;2023-02-28T10:25:45;3.13;;;1.13;;
7340;SDS011;6870;50.944;6.932;2023-02-28T10:28:21;2.10;;;1.23;;
7340;SDS011;6870;50.944;6.932;2023-02-28T10:30:52;3.33;;;0.97;;
7340;SDS011;6870;50.944;6.932;2023-02-28T10:33:23;3.57;;;1.67;;
7340;SDS011;6870;50.944;6.932;2023-02-28T10:35:53;3.43;;;0.90;;
7340;SDS011;6870;50.944;6.932;2023-02-28T10:38:22;1.20;;;0.93;;
7340;SDS011;6870;50.944;6.932;2023-02-28T10:41:03;1.27;;;1.17;;
7340;SDS011;6870;50.944;6.932;2023-02-28T10:43:34;3.40;;;1.67;;
7340;SDS011;6870;50.944;6.932;2023-02-28T10:46:03;2.17;;;1.40;;
7340;SDS011;6870;50.944;6.932;2023-02-28T10:48:42;2.50;;;1.60;;
7340;SDS011;6870;50.944;6.932;2023-02-28T10:51:15;6.83;;;1.23;;
7340;SDS011;6870;50.944;6.932;2023-02-28T10:53:47;3.97;;;1.70;;
7340;SDS011;6870;50.944;6.932;2023-02-28T10:56:27;1.83;;;1.30;;
7340;SDS011;6870;50.944;6.932;2023-02-28T10:58:59;2.70;;;1.40;;
7340;SDS011;6870;50.944;6.932;2023-02-28T11:01:36;2.87;;;1.57;;
7340;SDS011;6870;50.944;6.932;2023-02-28T11:04:17;2.60;;;1.70;;
7340;SDS011;6870;50.944;6.932;2023-02-28T11:06:48;4.43;;;2.20;;
7340;SDS011;6870;50.944;6.932;2023-02-28T11:09:27;3.33;;;1.97;;
7340;SDS011;6870;50.944;6.932;2023-02-28T11:11:58;2.47;;;1.90;;
7340;SDS011;6870;50.944;6.932;2023-02-28T11:14:29;4.57;;;1.70;;
7340;SDS011;6870;50.944;6.932;2023-02-28T11:17:11;1.70;;;1.43;;
7340;SDS011;6870;50.944;6.932;2023-02-28T11:19:44;2.93;;;1.97;;
7340;SDS011;6870;50.944;6.932;2023-02-28T11:22:17;3.80;;;2.30;;
7340;SDS011;6870;50.944;6.932;2023-02-28T11:24:49;2.70;;;1.70;;
7340;SDS011;6870;50.944;6.932;2023-02-28T11:27:24;2.20;;;1.80;;
7340;SDS011;6870;50.944;6.932;2023-02-28T11:30:19;2.03;;;1.83;;
7340;SDS011;6870;50.944;6.932;2023-02-28T11:32:57;2.93;;;1.63;;
7340;SDS011;6870;50.944;6.932;2023-02-28T11:35:27;2.33;;;1.53;;
7340;SDS011;6870;50.944;6.932;2023-02-28T11:38:00;2.10;;;1.90;;
7340;SDS011;6870;50.944;6.932;2023-02-28T11:40:30;1.90;;;1.50;;
7340;SDS011;6870;50.944;6.932;2023-02-28T11:43:11;2.00;;;1.80;;
7340;SDS011;6870;50.944;6.932;2023-02-28T11:46:00;2.77;;;2.00;;
7340;SDS011;6870;50.944;6.932;2023-02-28T11:48:45;1.77;;;1.50;;
7340;SDS011;6870;50.944;6.932;2023-02-28T11:51:22;3.67;;;1.67;;
7340;SDS011;6870;50.944;6.932;2023-02-28T11:54:01;3.47;;;2.50;;
7340;SDS011;6870;50.944;6.932;2023-02-28T11:56:49;2.60;;;1.80;;
7340;SDS011;6870;50.944;6.932;2023-02-28T11:59:35;2.13;;;1.97;;
7340;SDS011;6870;50.944;6.932;2023-02-28T12:02:26;5.57;;;1.87;;
7340;SDS011;6870;50.944;6.932;2023-02-28T12:05:01;2.13;;;1.40;;
7340;SDS011;6870;50.944;6.932;2023-02-28T12:07:53;5.45;;;2.10;;
7340;SDS011;6870;50.944;6.932;2023-02-28T12:10:35;2.00;;;1.30;;
7340;SDS011;6870;50.944;6.932;2023-02-28T12:13:15;2.27;;;1.80;;
7340;SDS011;6870;50.944;6.932;2023-02-28T12:15:52;2.33;;;1.70;;
7340;SDS011;6870;50.944;6.932;2023-02-28T12:19:03;3.73;;;1.77;;
7340;SDS011;6870;50.944;6.932;2023-02-28T12:21:44;1.90;;;1.60;;
7340;SDS011;6870;50.944;6.932;2023-02-28T12:24:29;1.80;;;1.47;;
7340;SDS011;6870;50.944;6.932;2023-02-28T12:27:46;2.30;;;1.50;;
7340;SDS011;6870;50.944;6.932;2023-02-28T12:30:19;2.53;;;1.83;;
7340;SDS011;6870;50.944;6.932;2023-02-28T12:32:52;3.70;;;2.10;;
7340;SDS011;6870;50.944;6.932;2023-02-28T12:35:26;1.87;;;1.73;;
7340;SDS011;6870;50.944;6.932;2023-02-28T12:38:03;3.27;;;2.33;;
7340;SDS011;6870;50.944;6.932;2023-02-28T12:40:41;2.47;;;1.87;;
7340;SDS011;6870;50.944;6.932;2023-02-28T12:43:13;3.40;;;2.30;;
7340;SDS011;6870;50.944;6.932;2023-02-28T12:45:45;1.93;;;1.60;;
7340;SDS011;6870;50.944;6.932;2023-02-28T12:48:20;2.10;;;1.83;;
7340;SDS011;6870;50.944;6.932;2023-02-28T12:50:56;4.80;;;2.07;;
7340;SDS011;6870;50.944;6.932;2023-02-28T12:53:30;4.00;;;2.40;;
7340;SDS011;6870;50.944;6.932;2023-02-28T12:56:08;2.27;;;2.00;;
7340;SDS011;6870;50.944;6.932;2023-02-28T12:58:43;3.00;;;2.00;;
7340;SDS011;6870;50.944;6.932;2023-02-28T13:01:35;1.77;;;1.67;;
7340;SDS011;6870;50.944;6.932;2023-02-28T13:04:36;2.20;;;2.00;;
7340;SDS011;6870;50.944;6.932;2023-02-28T13:07:20;2.40;;;2.10;;
7340;SDS011;6870;50.944;6.932;2023-02-28T13:10:37;2.07;;;1.80;;
7340;SDS011;6870;50.944;6.932;2023-02-28T13:13:13;2.20;;;2.00;;
7340;SDS011;6870;50.944;6.932;2023-02-28T13:16:02;2.30;;;2.10;;
7340;SDS011;6870;50.944;6.932;2023-02-28T13:18:33;2.10;;;1.67;;
7340;SDS011;6870;50.944;6.932;2023-02-28T13:21:06;4.20;;;2.10;;
7340;SDS011;6870;50.944;6.932;2023-02-28T13:23:39;2.40;;;1.90;;
7340;SDS011;6870;50.944;6.932;2023-02-28T13:29:53;3.00;;;2.27;;
7340;SDS011;6870;50.944;6.932;2023-02-28T13:32:29;2.70;;;1.87;;
7340;SDS011;6870;50.944;6.932;2023-02-28T13:38:24;2.67;;;2.00;;
7340;SDS011;6870;50.944;6.932;2023-02-28T13:44:14;3.40;;;2.37;;
7340;SDS011;6870;50.944;6.932;2023-02-28T13:49:51;2.33;;;2.10;;
7340;SDS011;6870;50.944;6.932;2023-02-28T13:52:21;2.13;;;1.60;;
7340;SDS011;6870;50.944;6.932;2023-02-28T13:54:56;2.27;;;1.93;;
7340;SDS011;6870;50.944;6.932;2023-02-28T13:57:48;2.53;;;2.27;;
7340;SDS011;6870;50.944;6.932;2023-02-28T14:00:35;2.00;;;1.57;;
7340;SDS011;6870;50.944;6.932;2023-02-28T14:03:36;2.20;;;1.90;;
7340;SDS011;6870;50.944;6.932;2023-02-28T14:06:17;3.30;;;1.90;;
7340;SDS011;6870;50.944;6.932;2023-02-28T14:08:55;2.50;;;2.30;;
7340;SDS011;6870;50.944;6.932;2023-02-28T14:11:28;3.37;;;2.30;;
7340;SDS011;6870;50.944;6.932;2023-02-28T14:14:01;2.30;;;2.00;;
7340;SDS011;6870;50.944;6.932;2023-02-28T14:16:35;2.17;;;1.77;;
7340;SDS011;6870;50.944;6.932;2023-02-28T14:19:10;4.03;;;2.20;;
7340;SDS011;6870;50.944;6.932;2023-02-28T14:21:45;1.77;;;1.67;;
7340;SDS011;6870;50.944;6.932;2023-02-28T14:24:42;2.77;;;2.27;;
7340;SDS011;6870;50.944;6.932;2023-02-28T14:27:29;2.57;;;1.70;;
7340;SDS011;6870;50.944;6.932;2023-02-28T14:33:13;2.17;;;1.83;;
7340;SDS011;6870;50.944;6.932;2023-02-28T14:35:53;2.30;;;2.00;;
7340;SDS011;6870;50.944;6.932;2023-02-28T14:38:32;2.00;;;1.80;;
7340;SDS011;6870;50.944;6.932;2023-02-28T14:41:12;2.70;;;2.10;;
7340;SDS011;6870;50.944;6.932;2023-02-28T14:43:48;2.67;;;2.43;;
7340;SDS011;6870;50.944;6.932;2023-02-28T14:46:22;3.30;;;2.53;;
7340;SDS011;6870;50.944;6.932;2023-02-28T14:48:55;3.10;;;2.63;;
7340;SDS011;6870;50.944;6.932;2023-02-28T14:51:23;2.50;;;2.23;;
7340;SDS011;6870;50.944;6.932;2023-02-28T14:53:52;3.43;;;2.10;;
7340;SDS011;6870;50.944;6.932;2023-02-28T14:56:27;2.80;;;1.63;;
7340;SDS011;6870;50.944;6.932;2023-02-28T14:59:01;2.07;;;1.87;;
7340;SDS011;6870;50.944;6.932;2023-02-28T15:01:31;2.23;;;1.57;;
7340;SDS011;6870;50.944;6.932;2023-02-28T15:04:01;2.10;;;1.87;;
7340;SDS011;6870;50.944;6.932;2023-02-28T15:06:32;2.17;;;1.70;;
7340;SDS011;6870;50.944;6.932;2023-02-28T15:09:07;1.80;;;1.70;;
7340;SDS011;6870;50.944;6.932;2023-02-28T15:11:44;5.10;;;2.20;;
7340;SDS011;6870;50.944;6.932;2023-02-28T15:14:17;3.97;;;2.07;;
7340;SDS011;6870;50.944;6.932;2023-02-28T15:16:50;4.37;;;2.27;;
7340;SDS011;6870;50.944;6.932;2023-02-28T15:19:24;4.30;;;1.80;;
7340;SDS011;6870;50.944;6.932;2023-02-28T15:21:56;2.40;;;1.87;;
7340;SDS011;6870;50.944;6.932;2023-02-28T15:24:33;4.40;;;1.40;;
7340;SDS011;6870;50.944;6.932;2023-02-28T15:27:06;1.93;;;1.30;;
7340;SDS011;6870;50.944;6.932;2023-02-28T15:29:42;3.00;;;1.40;;
7340;SDS011;6870;50.944;6.932;2023-02-28T15:32:28;7.30;;;2.77;;
7340;SDS011;6870;50.944;6.932;2023-02-28T15:37:47;3.57;;;3.17;;
7340;SDS011;6870;50.944;6.932;2023-02-28T15:40:22;4.37;;;2.47;;
7340;SDS011;6870;50.944;6.932;2023-02-28T15:42:57;2.80;;;2.57;;
7340;SDS011;6870;50.944;6.932;2023-02-28T15:45:34;7.40;;;1.70;;
7340;SDS011;6870;50.944;6.932;2023-02-28T15:48:13;3.10;;;1.67;;
7340;SDS011;6870;50.944;6.932;2023-02-28T15:50:48;2.77;;;1.77;;
7340;SDS011;6870;50.944;6.932;2023-02-28T15:53:19;4.70;;;1.93;;
7340;SDS011;6870;50.944;6.932;2023-02-28T15:55:54;5.03;;;2.47;;
7340;SDS011;6870;50.944;6.932;2023-02-28T15:58:26;5.22;;;2.20;;
7340;SDS011;6870;50.944;6.932;2023-02-28T16:01:16;8.60;;;1.73;;
7340;SDS011;6870;50.944;6.932;2023-02-28T16:03:50;5.43;;;1.83;;
7340;SDS011;6870;50.944;6.932;2023-02-28T16:09:09;5.27;;;1.77;;
7340;SDS011;6870;50.944;6.932;2023-02-28T16:11:41;3.50;;;1.47;;
7340;SDS011;6870;50.944;6.932;2023-02-28T16:14:14;3.67;;;1.67;;
7340;SDS011;6870;50.944;6.932;2023-02-28T16:16:45;3.20;;;1.60;;
7340;SDS011;6870;50.944;6.932;2023-02-28T16:19:17;3.07;;;1.87;;